ilmateenistus.ee keskkonnaagentuur.ee
EETN Tallinna lennuväli
FTEO31 EETN 150500
TAF EETN 150530Z 1506/1606 12008KT 9999 OVC020 PROB40 TEMPO 1506/1610
    BKN008 OVC015 TEMPO 1519/1606 BKN008 OVC015=

METAR EETN 151050Z 10007KT 9999 OVC018 M02/M05 Q1037 R08/19//95 NOSIG=
Tallinna lennuväli
EEKA Kärdla lennuväli
FCEO32 EETN 150500 AAA
TAF AMD EEKA 150900Z 1506/1512 CNL=

METAR EEKA 151050Z NIL=
Kärdla lennuväli
EEKE Kuressaare lennuväli
FCEO32 EETN 150800
TAF EEKE 150800Z 1509/1515 08007KT 9999 OVC025 TEMPO 1509/1515
    OVC010=

Kuressaare lennuväli
EEPU Pärnu lennuväli
METAR EEPU 151050Z 08004KT 040V140 9999 OVC012 M02/M04 Q1036=
Pärnu lennuväli
EETU Tartu lennuväli
METAR EETU 151050Z AUTO 08007KT 5000 BR OVC004/// M04/M05 Q1036=
Tartu lennuväli
EEEI Ämari lennuväli
METAR EEEI 151050Z 07006KT 9999 OVC017 M02/M05 Q1037 R06/190095 NOSIG=
Ämari lennuväli